Petite-Riviere-Saint-Francois, Canada
Current Conditions -  °F | °C
As of 3:00 PM on Saturday 25 Oct 2014 (Local Time) from CYOY Reporting Station
Few Clouds Few Clouds  
Wind Chill: 48°   Ceiling: Unl
Heat Index: 48°   Visibility: 9mi
Dew Point: 37°   Wind: 3mph
Humidity: 66%   Direction: 220°SW
Pressure: 29.54"   Gusts: NA
Location:  47.31°N, 70.57°W
Report Text: CYOY 251900Z AUTO 22003KT 170V280 9SM FEW082 09/03 A2954 RMKSLP011
Loading
Personal Weather Stations






























Interactive Weather Map
Tropical Storm Tracking
New forecast layout! Learn more

10-Day Weather Forecast

Advertisements
Track Severe Weather on mobile